createdAt,value
2023-02-11T00:01:42.373Z,64.30
2023-02-11T00:04:10.217Z,54.40
2023-02-11T00:06:44.700Z,57.90
2023-02-11T00:09:12.464Z,63.70
2023-02-11T00:11:40.203Z,67.50
2023-02-11T00:14:08.515Z,63.20
2023-02-11T00:16:42.794Z,56.70
2023-02-11T00:19:10.541Z,75.20
2023-02-11T00:21:38.314Z,69.20
2023-02-11T00:24:06.168Z,63.30
2023-02-11T00:26:34.755Z,63.80
2023-02-11T00:29:03.393Z,70.90
2023-02-11T00:31:32.921Z,77.50
2023-02-11T00:34:01.661Z,58.70
2023-02-11T00:36:29.802Z,76.50
2023-02-11T00:38:58.142Z,75.80
2023-02-11T00:41:26.207Z,74.40
2023-02-11T00:43:54.355Z,69.60
2023-02-11T00:46:22.257Z,65.90
2023-02-11T00:48:51.932Z,64.80
2023-02-11T00:51:22.546Z,68.40
2023-02-11T00:53:50.240Z,75.60
2023-02-11T00:56:17.982Z,74.90
2023-02-11T00:58:45.740Z,68.90
2023-02-11T01:01:13.758Z,74.10
2023-02-11T01:03:44.058Z,66.10
2023-02-11T01:06:11.983Z,82.90
2023-02-11T01:08:40.242Z,54.70
2023-02-11T01:11:17.520Z,75.20
2023-02-11T01:13:47.216Z,72.20
2023-02-11T01:16:17.127Z,77.10
2023-02-11T01:18:53.646Z,66.00
2023-02-11T01:21:25.374Z,62.00
2023-02-11T01:23:53.124Z,76.10
2023-02-11T01:26:20.770Z,80.90
2023-02-11T01:28:48.440Z,64.60
2023-02-11T01:31:16.280Z,67.80
2023-02-11T01:33:43.953Z,67.20
2023-02-11T01:36:21.493Z,70.70
2023-02-11T01:38:50.156Z,64.10
2023-02-11T01:41:21.294Z,74.60
2023-02-11T01:43:50.325Z,74.00
2023-02-11T01:46:37.046Z,70.50
2023-02-11T01:49:09.316Z,75.10
2023-02-11T01:51:37.254Z,63.50
2023-02-11T01:54:25.266Z,68.30
2023-02-11T01:57:13.923Z,75.30
2023-02-11T01:59:56.171Z,73.90
2023-02-11T02:02:26.642Z,73.60
2023-02-11T02:04:57.302Z,77.90
2023-02-11T02:07:38.748Z,77.20
2023-02-11T02:10:13.924Z,68.50
2023-02-11T02:12:45.421Z,78.60
2023-02-11T02:15:22.808Z,83.70
2023-02-11T02:18:13.850Z,69.00
2023-02-11T02:21:00.222Z,73.00
2023-02-11T02:23:40.092Z,77.90
2023-02-11T02:26:20.033Z,80.50
2023-02-11T02:28:47.604Z,65.60
2023-02-11T02:31:23.261Z,74.50
2023-02-11T02:34:17.625Z,67.70
2023-02-11T02:36:51.986Z,73.70
2023-02-11T02:39:29.290Z,57.50
2023-02-11T02:41:57.426Z,62.70
2023-02-11T02:44:25.509Z,67.80
2023-02-11T02:46:53.373Z,54.10
2023-02-11T02:49:21.141Z,69.30
2023-02-11T02:52:10.546Z,66.70
2023-02-11T02:54:44.300Z,62.50
2023-02-11T02:57:18.091Z,71.10
2023-02-11T02:59:54.788Z,60.80
2023-02-11T03:02:47.959Z,69.50
2023-02-11T03:05:27.939Z,59.50
2023-02-11T03:07:55.762Z,62.20
2023-02-11T03:10:34.597Z,64.20
2023-02-11T03:13:03.637Z,67.10
2023-02-11T03:15:33.318Z,73.00
2023-02-11T03:18:01.968Z,51.70
2023-02-11T03:20:30.717Z,61.50
2023-02-11T03:23:02.216Z,65.90
2023-02-11T03:25:31.580Z,63.10
2023-02-11T03:28:02.565Z,66.20
2023-02-11T03:30:32.352Z,51.70
2023-02-11T03:33:03.140Z,60.90
2023-02-11T03:35:34.859Z,66.50
2023-02-11T03:38:06.073Z,58.50
2023-02-11T03:40:38.931Z,54.80
2023-02-11T03:43:13.170Z,56.70
2023-02-11T03:45:41.053Z,61.80
2023-02-11T03:48:14.991Z,69.10
2023-02-11T03:50:51.144Z,58.40
2023-02-11T03:53:19.974Z,60.70
2023-02-11T03:55:49.281Z,68.60
2023-02-11T03:58:17.182Z,66.20
2023-02-11T04:00:48.949Z,41.70
2023-02-11T04:03:16.708Z,56.90
2023-02-11T04:05:44.521Z,54.10
2023-02-11T04:08:16.284Z,55.20
2023-02-11T04:10:44.025Z,53.90
2023-02-11T04:13:11.779Z,65.30
2023-02-11T04:15:39.651Z,54.20
2023-02-11T04:18:07.508Z,56.70
2023-02-11T04:20:35.200Z,56.40
2023-02-11T04:23:03.154Z,53.50
2023-02-11T04:25:30.897Z,67.50
2023-02-11T04:27:58.839Z,53.90
2023-02-11T04:30:26.614Z,61.30
2023-02-11T04:33:00.441Z,59.40
2023-02-11T04:35:28.227Z,56.30
2023-02-11T04:37:56.284Z,65.30
2023-02-11T04:40:24.132Z,60.40
2023-02-11T04:42:52.680Z,63.70
2023-02-11T04:45:20.444Z,49.90
2023-02-11T04:47:48.142Z,74.00
2023-02-11T04:50:16.172Z,64.40
2023-02-11T04:52:44.016Z,78.30
2023-02-11T04:55:11.934Z,63.80
2023-02-11T04:57:39.803Z,65.10
2023-02-11T05:00:08.363Z,71.80
2023-02-11T05:02:36.123Z,72.00
2023-02-11T05:05:04.520Z,59.10
2023-02-11T05:07:32.625Z,68.70
2023-02-11T05:10:00.460Z,81.70
2023-02-11T05:12:28.225Z,67.80
2023-02-11T05:14:55.921Z,78.40
2023-02-11T05:17:23.606Z,58.60
2023-02-11T05:19:51.347Z,67.50
2023-02-11T05:22:19.779Z,75.50
2023-02-11T05:24:47.482Z,64.90
2023-02-11T05:27:15.318Z,73.80
2023-02-11T05:29:43.133Z,69.30
2023-02-11T05:32:10.990Z,71.40
2023-02-11T05:34:38.698Z,70.50
2023-02-11T05:37:06.475Z,69.70
2023-02-11T05:39:34.237Z,79.80
2023-02-11T05:42:01.922Z,70.10
2023-02-11T05:44:29.545Z,76.60
2023-02-11T05:46:57.385Z,85.90
2023-02-11T05:49:25.217Z,83.80
2023-02-11T05:51:52.935Z,69.70
2023-02-11T05:54:27.239Z,73.40
2023-02-11T05:57:01.430Z,86.30
2023-02-11T05:59:36.483Z,87.80
2023-02-11T06:02:08.547Z,71.80
2023-02-11T06:04:37.134Z,78.00
2023-02-11T06:07:11.528Z,91.40
2023-02-11T06:09:43.610Z,81.50
2023-02-11T06:12:11.342Z,94.80
2023-02-11T06:14:39.011Z,85.10
2023-02-11T06:17:06.854Z,90.20
2023-02-11T06:19:34.675Z,89.50
2023-02-11T06:22:02.440Z,71.20
2023-02-11T06:24:51.321Z,93.80
2023-02-11T06:27:19.177Z,81.40
2023-02-11T06:29:47.872Z,74.90
2023-02-11T06:32:36.472Z,74.30
2023-02-11T06:35:03.450Z,78.80
2023-02-11T06:37:31.300Z,80.80
2023-02-11T06:39:59.130Z,70.40
2023-02-11T06:42:26.851Z,77.30
2023-02-11T06:44:54.583Z,81.20
2023-02-11T06:47:22.631Z,92.20
2023-02-11T06:49:50.536Z,81.20
2023-02-11T06:52:18.183Z,92.00
2023-02-11T06:54:46.197Z,85.70
2023-02-11T06:57:13.848Z,82.30
2023-02-11T06:59:41.869Z,69.60
2023-02-11T07:02:10.561Z,93.50
2023-02-11T07:04:38.484Z,69.80
2023-02-11T07:07:06.411Z,86.80
2023-02-11T07:09:34.188Z,82.50
2023-02-11T07:12:02.024Z,90.80
2023-02-11T07:14:29.793Z,86.50
2023-02-11T07:16:58.231Z,80.00
2023-02-11T07:19:26.020Z,65.70
2023-02-11T07:21:54.339Z,80.20
2023-02-11T07:24:21.978Z,83.00
2023-02-11T07:26:50.518Z,80.80
2023-02-11T07:29:18.141Z,93.50
2023-02-11T07:31:46.037Z,73.70
2023-02-11T07:34:14.042Z,92.60
2023-02-11T07:36:43.810Z,98.70
2023-02-11T07:39:11.624Z,103.20
2023-02-11T07:41:39.433Z,74.80
2023-02-11T07:44:08.387Z,83.50
2023-02-11T07:46:58.469Z,85.70
2023-02-11T07:49:33.651Z,77.20
2023-02-11T07:52:02.044Z,82.70
2023-02-11T07:54:30.558Z,77.40
2023-02-11T07:56:59.050Z,87.80
2023-02-11T07:59:27.815Z,80.40
2023-02-11T08:01:58.148Z,80.80
2023-02-11T08:04:32.310Z,76.30
2023-02-11T08:07:01.017Z,85.20
2023-02-11T08:09:29.338Z,69.80
2023-02-11T08:12:00.533Z,79.10
2023-02-11T08:14:29.014Z,77.50
2023-02-11T08:16:56.838Z,66.60
2023-02-11T08:19:24.557Z,78.80
2023-02-11T08:21:54.848Z,77.30
2023-02-11T08:24:22.957Z,80.80
2023-02-11T08:26:53.042Z,54.50
2023-02-11T08:29:22.212Z,72.50
2023-02-11T08:31:50.088Z,76.40
2023-02-11T08:34:22.775Z,84.20
2023-02-11T08:36:51.504Z,82.20
2023-02-11T08:39:21.060Z,85.40
2023-02-11T08:41:51.555Z,82.60
2023-02-11T08:44:20.664Z,89.20
2023-02-11T08:46:49.098Z,79.40
2023-02-11T08:49:17.067Z,83.00
2023-02-11T08:51:45.293Z,93.30
2023-02-11T08:54:13.612Z,76.00
2023-02-11T08:56:43.261Z,85.80
2023-02-11T08:59:13.352Z,87.70
2023-02-11T09:01:41.183Z,80.30
2023-02-11T09:04:10.205Z,69.90
2023-02-11T09:06:37.965Z,67.60
2023-02-11T09:09:13.736Z,149.60
2023-02-11T09:11:42.411Z,116.40
2023-02-11T09:14:16.492Z,76.60
2023-02-11T09:19:11.859Z,86.90
2023-02-11T09:21:40.021Z,133.20
2023-02-11T09:24:08.205Z,122.20
2023-02-11T09:26:38.150Z,110.80
2023-02-11T09:29:06.060Z,85.90
2023-02-11T09:31:34.221Z,73.50
2023-02-11T09:34:04.439Z,76.80
2023-02-11T09:36:34.262Z,77.50
2023-02-11T09:39:02.508Z,62.00
2023-02-11T09:41:30.852Z,72.40
2023-02-11T09:44:02.760Z,61.20
2023-02-11T09:46:32.953Z,47.60
2023-02-11T09:49:02.179Z,77.20
2023-02-11T09:51:32.995Z,67.80
2023-02-11T09:54:05.464Z,72.00
2023-02-11T09:56:33.520Z,67.20
2023-02-11T09:59:01.344Z,54.10
2023-02-11T10:01:29.095Z,64.60
2023-02-11T10:04:15.384Z,71.30
2023-02-11T10:06:54.246Z,65.00
2023-02-11T10:09:31.151Z,65.00
2023-02-11T10:12:17.662Z,59.90
2023-02-11T10:14:54.390Z,64.00
2023-02-11T10:17:22.430Z,62.40
2023-02-11T10:19:59.907Z,57.40
2023-02-11T10:22:41.345Z,55.50
2023-02-11T10:25:29.836Z,68.00
2023-02-11T10:27:59.732Z,61.50
2023-02-11T10:30:36.310Z,60.40
2023-02-11T10:33:05.956Z,64.30
2023-02-11T10:35:33.756Z,66.30
2023-02-11T10:38:01.762Z,62.70
2023-02-11T10:40:30.684Z,75.60
2023-02-11T10:43:00.216Z,62.70
2023-02-11T10:45:30.952Z,59.60
2023-02-11T10:48:01.435Z,63.10
2023-02-11T10:50:30.701Z,68.90
2023-02-11T10:53:20.736Z,72.50
2023-02-11T10:55:53.046Z,64.10
2023-02-11T10:58:26.072Z,65.40
2023-02-11T11:00:55.854Z,63.70
2023-02-11T11:03:25.442Z,58.80
2023-02-11T11:05:58.149Z,69.10
2023-02-11T11:08:46.671Z,67.00
2023-02-11T11:11:18.918Z,65.30
2023-02-11T11:13:52.658Z,65.80
2023-02-11T11:16:23.659Z,56.90
2023-02-11T11:18:53.022Z,68.70
2023-02-11T11:21:40.365Z,62.20
2023-02-11T11:24:19.942Z,55.10
2023-02-11T11:26:49.677Z,63.20
2023-02-11T11:29:19.249Z,57.80
2023-02-11T11:31:49.918Z,61.00
2023-02-11T11:34:32.448Z,61.90
2023-02-11T11:37:01.790Z,59.60
2023-02-11T11:39:34.835Z,66.90
2023-02-11T11:42:26.031Z,51.10
2023-02-11T11:45:05.026Z,63.60
2023-02-11T11:47:35.041Z,64.00
2023-02-11T11:50:07.192Z,48.40
2023-02-11T11:53:04.549Z,53.10
2023-02-11T11:55:39.008Z,58.40
2023-02-11T11:58:10.703Z,105.70
2023-02-11T12:00:41.731Z,63.20
2023-02-11T12:03:21.893Z,55.90
2023-02-11T12:06:04.822Z,56.10
2023-02-11T12:08:50.776Z,49.00
2023-02-11T12:11:22.622Z,50.10
2023-02-11T12:13:58.396Z,58.20
2023-02-11T12:16:29.488Z,60.60
2023-02-11T12:19:16.452Z,55.00
2023-02-11T12:22:03.814Z,49.50
2023-02-11T12:24:47.033Z,46.50
2023-02-11T12:27:35.282Z,46.80
2023-02-11T12:30:15.371Z,46.90
2023-02-11T12:32:57.858Z,48.30
2023-02-11T12:35:29.755Z,39.50
2023-02-11T12:38:18.845Z,39.40
2023-02-11T12:41:01.590Z,37.70
2023-02-11T12:43:41.009Z,29.20
2023-02-11T12:46:35.420Z,35.50
2023-02-11T12:49:15.953Z,33.30
2023-02-11T12:51:46.824Z,44.20
2023-02-11T12:54:14.589Z,29.30
2023-02-11T12:56:45.558Z,32.40
2023-02-11T12:59:17.268Z,35.00
2023-02-11T13:01:45.055Z,43.20
2023-02-11T13:04:16.000Z,29.00
2023-02-11T13:06:46.856Z,29.90
2023-02-11T13:09:19.114Z,31.00
2023-02-11T13:11:52.191Z,29.40
2023-02-11T13:14:26.786Z,32.80
2023-02-11T13:16:55.178Z,34.60
2023-02-11T13:19:23.420Z,27.10
2023-02-11T13:21:59.392Z,26.30
2023-02-11T13:24:27.096Z,30.10
2023-02-11T13:27:18.447Z,32.10
2023-02-11T13:29:47.586Z,30.30
2023-02-11T13:32:22.160Z,26.90
2023-02-11T13:34:53.061Z,25.70
2023-02-11T13:37:22.591Z,28.40
2023-02-11T13:39:58.409Z,28.10
2023-02-11T13:42:26.682Z,29.30
2023-02-11T13:44:55.192Z,26.00
2023-02-11T13:47:31.112Z,33.50
2023-02-11T13:50:00.399Z,41.00
2023-02-11T13:52:34.415Z,37.80
2023-02-11T13:55:14.361Z,29.20
2023-02-11T13:57:42.299Z,29.40
2023-02-11T14:00:29.048Z,26.90
2023-02-11T14:03:31.332Z,28.40
2023-02-11T14:06:38.339Z,28.60
2023-02-11T14:09:12.919Z,26.00
2023-02-11T14:11:40.947Z,28.20
2023-02-11T14:14:16.801Z,21.80
2023-02-11T14:17:05.233Z,22.20
2023-02-11T14:19:33.755Z,19.80
2023-02-11T14:22:29.120Z,17.70
2023-02-11T14:25:01.344Z,17.10
2023-02-11T14:27:38.298Z,21.60
2023-02-11T14:30:29.427Z,20.00
2023-02-11T14:33:03.937Z,20.60
2023-02-11T14:36:10.580Z,19.70
2023-02-11T14:38:48.252Z,17.50
2023-02-11T14:41:19.853Z,19.80
2023-02-11T14:43:49.802Z,18.70
2023-02-11T14:46:18.398Z,25.50
2023-02-11T14:48:47.244Z,21.30
2023-02-11T14:51:25.997Z,22.10
2023-02-11T14:53:57.950Z,23.60
2023-02-11T14:56:30.708Z,20.00
2023-02-11T14:58:59.763Z,16.60
2023-02-11T15:01:32.094Z,16.30
2023-02-11T15:04:01.728Z,27.40
2023-02-11T15:06:33.822Z,23.80
2023-02-11T15:09:14.669Z,21.80
2023-02-11T15:11:44.491Z,14.50
2023-02-11T15:14:19.038Z,15.20
2023-02-11T15:16:47.222Z,16.30
2023-02-11T15:19:23.590Z,14.40
2023-02-11T15:21:52.904Z,14.10
2023-02-11T15:24:26.784Z,18.00
2023-02-11T15:26:58.637Z,15.80
2023-02-11T15:29:27.694Z,14.30
2023-02-11T15:32:06.136Z,18.30
2023-02-11T15:34:57.029Z,18.80
2023-02-11T15:37:26.246Z,17.70
2023-02-11T15:39:54.218Z,19.60
2023-02-11T15:42:26.528Z,19.60
2023-02-11T15:45:11.952Z,13.80
2023-02-11T15:47:42.578Z,19.00
2023-02-11T15:50:19.973Z,16.00
2023-02-11T15:52:48.586Z,18.70
2023-02-11T15:55:17.265Z,16.50
2023-02-11T15:57:46.817Z,20.70
2023-02-11T16:00:18.880Z,35.40
2023-02-11T16:02:47.270Z,32.70
2023-02-11T16:05:24.195Z,19.30
2023-02-11T16:07:52.135Z,20.60
2023-02-11T16:10:34.476Z,23.30
2023-02-11T16:13:08.144Z,20.30
2023-02-11T16:15:45.340Z,23.50
2023-02-11T16:18:31.001Z,20.00
2023-02-11T16:21:02.887Z,26.00
2023-02-11T16:23:42.315Z,16.10
2023-02-11T16:26:32.759Z,21.70
2023-02-11T16:29:10.210Z,20.00
2023-02-11T16:31:39.881Z,19.90
2023-02-11T16:34:13.421Z,21.50
2023-02-11T16:36:41.526Z,20.80
2023-02-11T16:39:09.652Z,25.20
2023-02-11T16:41:58.480Z,24.70
2023-02-11T16:44:33.119Z,25.20
2023-02-11T16:47:09.087Z,24.80
2023-02-11T16:49:43.743Z,28.50
2023-02-11T16:52:16.277Z,25.70
2023-02-11T16:54:44.105Z,20.30
2023-02-11T16:57:16.206Z,26.30
2023-02-11T16:59:48.214Z,26.00
2023-02-11T17:02:25.374Z,29.20
2023-02-11T17:04:54.010Z,25.70
2023-02-11T17:07:22.095Z,23.90
2023-02-11T17:09:50.132Z,19.70
2023-02-11T17:12:18.455Z,16.40
2023-02-11T17:15:07.834Z,28.40
2023-02-11T17:17:35.833Z,30.10
2023-02-11T17:20:04.018Z,27.40
2023-02-11T17:22:31.688Z,22.90
2023-02-11T17:24:59.467Z,32.10
2023-02-11T17:27:27.310Z,28.60
2023-02-11T17:29:55.288Z,26.20
2023-02-11T17:32:23.006Z,27.20
2023-02-11T17:34:52.718Z,25.40
2023-02-11T17:37:24.419Z,25.10
2023-02-11T17:39:52.193Z,34.10
2023-02-11T17:42:20.004Z,27.40
2023-02-11T17:44:47.885Z,28.30
2023-02-11T17:47:16.170Z,27.60
2023-02-11T17:49:44.062Z,31.20
2023-02-11T17:52:11.825Z,27.00
2023-02-11T17:54:39.760Z,28.30
2023-02-11T17:57:07.553Z,32.90
2023-02-11T17:59:35.589Z,36.80
2023-02-11T18:02:03.739Z,26.70
2023-02-11T18:04:38.119Z,37.60
2023-02-11T18:07:09.133Z,35.80
2023-02-11T18:09:40.951Z,34.10
2023-02-11T18:12:09.327Z,34.20
2023-02-11T18:14:40.670Z,35.50
2023-02-11T18:17:09.066Z,44.90
2023-02-11T18:19:37.556Z,43.20
2023-02-11T18:22:05.517Z,36.50
2023-02-11T18:24:33.510Z,28.00
2023-02-11T18:27:01.335Z,40.10
2023-02-11T18:29:29.904Z,60.40
2023-02-11T18:32:01.851Z,89.90
2023-02-11T18:34:29.792Z,81.40
2023-02-11T18:36:57.560Z,101.40
2023-02-11T18:39:26.574Z,160.90
2023-02-11T18:42:02.408Z,74.90
2023-02-11T18:44:30.448Z,56.00
2023-02-11T18:46:59.556Z,39.40
2023-02-11T18:49:28.943Z,44.30
2023-02-11T18:51:58.754Z,41.40
2023-02-11T18:54:26.527Z,36.60
2023-02-11T18:56:54.274Z,30.40
2023-02-11T18:59:22.035Z,37.30
2023-02-11T19:01:51.529Z,25.00
2023-02-11T19:04:20.324Z,23.30
2023-02-11T19:06:49.569Z,31.50
2023-02-11T19:09:18.862Z,29.40
2023-02-11T19:11:54.450Z,27.50
2023-02-11T19:14:27.281Z,16.30
2023-02-11T19:16:56.417Z,16.60
2023-02-11T19:19:25.755Z,21.70
2023-02-11T19:21:54.203Z,18.90
2023-02-11T19:24:23.163Z,13.30
2023-02-11T19:26:52.584Z,25.60
2023-02-11T19:29:22.913Z,18.20
2023-02-11T19:31:51.350Z,22.20
2023-02-11T19:34:41.592Z,42.80
2023-02-11T19:37:13.851Z,23.30
2023-02-11T19:39:43.118Z,31.00
2023-02-11T19:42:18.947Z,18.40
2023-02-11T19:44:48.160Z,11.80
2023-02-11T19:47:19.738Z,15.00
2023-02-11T19:49:52.210Z,17.70
2023-02-11T19:52:40.805Z,23.70
2023-02-11T19:55:08.684Z,10.40
2023-02-11T19:57:37.000Z,16.10
2023-02-11T20:00:05.358Z,10.30
2023-02-11T20:02:40.512Z,11.00
2023-02-11T20:05:09.294Z,15.30
2023-02-11T20:07:37.356Z,11.20
2023-02-11T20:10:05.829Z,15.30
2023-02-11T20:12:33.590Z,14.80
2023-02-11T20:15:01.356Z,7.80
2023-02-11T20:17:29.754Z,5.80
2023-02-11T20:19:57.584Z,8.80
2023-02-11T20:22:25.517Z,7.20
2023-02-11T20:24:53.414Z,3.60
2023-02-11T20:27:21.595Z,15.30
2023-02-11T20:29:50.599Z,6.90
2023-02-11T20:32:18.433Z,6.40
2023-02-11T20:34:52.673Z,9.40
2023-02-11T20:37:20.883Z,11.00
2023-02-11T20:39:50.414Z,6.30
2023-02-11T20:42:18.901Z,4.90
2023-02-11T20:44:47.645Z,4.10
2023-02-11T20:47:19.353Z,8.50
2023-02-11T20:49:48.308Z,5.10
2023-02-11T20:52:17.523Z,5.20
2023-02-11T20:54:46.016Z,2.90
2023-02-11T20:57:13.983Z,8.30
2023-02-11T20:59:43.872Z,4.40
2023-02-11T21:02:13.435Z,6.80
2023-02-11T21:04:41.886Z,13.80
2023-02-11T21:07:09.786Z,9.40
2023-02-11T21:09:39.831Z,13.30
2023-02-11T21:12:08.913Z,11.40
2023-02-11T21:14:36.735Z,9.80
2023-02-11T21:17:13.040Z,14.50
2023-02-11T21:19:41.712Z,12.60
2023-02-11T21:22:09.801Z,13.80
2023-02-11T21:24:38.274Z,8.10
2023-02-11T21:27:06.148Z,8.80
2023-02-11T21:29:36.644Z,7.60
2023-02-11T21:32:08.743Z,14.00
2023-02-11T21:34:56.745Z,8.50
2023-02-11T21:37:24.827Z,11.30
2023-02-11T21:39:52.670Z,13.80
2023-02-11T21:42:20.586Z,9.70
2023-02-11T21:44:48.352Z,18.40
2023-02-11T21:47:16.351Z,8.70
2023-02-11T21:49:44.232Z,18.60
2023-02-11T21:52:12.724Z,13.20
2023-02-11T21:54:40.534Z,17.60
2023-02-11T21:57:08.523Z,11.20
2023-02-11T21:59:36.431Z,15.80
2023-02-11T22:02:04.649Z,5.40
2023-02-11T22:04:33.591Z,12.20
2023-02-11T22:07:03.061Z,11.00
2023-02-11T22:09:30.832Z,16.50
2023-02-11T22:11:58.627Z,13.20
2023-02-11T22:14:26.893Z,11.10
2023-02-11T22:16:54.679Z,15.80
2023-02-11T22:19:24.242Z,12.70
2023-02-11T22:21:52.495Z,18.40
2023-02-11T22:24:21.181Z,12.50
2023-02-11T22:26:50.822Z,11.20
2023-02-11T22:29:19.910Z,12.10
2023-02-11T22:31:47.756Z,19.40
2023-02-11T22:34:15.607Z,21.60
2023-02-11T22:36:45.451Z,17.40
2023-02-11T22:39:16.071Z,16.40
2023-02-11T22:41:45.368Z,14.80
2023-02-11T22:44:21.086Z,16.30
2023-02-11T22:46:55.512Z,17.50
2023-02-11T22:49:23.634Z,16.30
2023-02-11T22:51:58.149Z,16.60
2023-02-11T22:54:30.886Z,21.90
2023-02-11T22:56:58.638Z,15.70
2023-02-11T22:59:26.674Z,12.50
2023-02-11T23:01:54.607Z,17.20
2023-02-11T23:04:22.620Z,11.20
2023-02-11T23:06:50.595Z,18.40
2023-02-11T23:09:18.428Z,13.90
2023-02-11T23:11:48.548Z,13.20
2023-02-11T23:14:16.704Z,11.20
2023-02-11T23:16:45.068Z,13.30
2023-02-11T23:19:12.986Z,10.40
2023-02-11T23:22:00.768Z,10.10
2023-02-11T23:24:29.197Z,10.20
2023-02-11T23:26:57.916Z,17.40
2023-02-11T23:29:32.777Z,12.70
2023-02-11T23:32:00.576Z,13.60
2023-02-11T23:34:28.425Z,8.70
2023-02-11T23:36:57.710Z,12.20
2023-02-11T23:39:25.593Z,10.80
2023-02-11T23:41:58.923Z,18.30
2023-02-11T23:44:27.180Z,34.00
2023-02-11T23:46:54.938Z,25.40
2023-02-11T23:49:22.695Z,19.80
2023-02-11T23:51:50.334Z,23.90
2023-02-11T23:54:18.037Z,12.60
2023-02-11T23:56:46.426Z,14.70
2023-02-11T23:59:14.143Z,8.50
